sensor_id;sensor_type;location;lat;lon;timestamp;P1;durP1;ratioP1;P2;durP2;ratioP2
13731;SDS011;6937;56.096;12.664;2022-10-16T00:01:45;27.58;;;23.13;;
13731;SDS011;6937;56.096;12.664;2022-10-16T00:04:11;28.45;;;22.10;;
13731;SDS011;6937;56.096;12.664;2022-10-16T00:06:38;26.35;;;22.42;;
13731;SDS011;6937;56.096;12.664;2022-10-16T00:09:04;23.92;;;21.33;;
13731;SDS011;6937;56.096;12.664;2022-10-16T00:11:31;24.33;;;20.83;;
13731;SDS011;6937;56.096;12.664;2022-10-16T00:13:59;22.40;;;20.20;;
13731;SDS011;6937;56.096;12.664;2022-10-16T00:16:27;23.58;;;20.52;;
13731;SDS011;6937;56.096;12.664;2022-10-16T00:18:53;23.42;;;19.95;;
13731;SDS011;6937;56.096;12.664;2022-10-16T00:21:20;21.70;;;18.55;;
13731;SDS011;6937;56.096;12.664;2022-10-16T00:23:54;19.25;;;17.35;;
13731;SDS011;6937;56.096;12.664;2022-10-16T00:26:21;19.65;;;17.75;;
13731;SDS011;6937;56.096;12.664;2022-10-16T00:28:50;20.35;;;18.27;;
13731;SDS011;6937;56.096;12.664;2022-10-16T00:31:16;21.58;;;18.67;;
13731;SDS011;6937;56.096;12.664;2022-10-16T00:36:10;19.27;;;17.27;;
13731;SDS011;6937;56.096;12.664;2022-10-16T00:38:37;22.42;;;18.60;;
13731;SDS011;6937;56.096;12.664;2022-10-16T00:41:03;21.27;;;18.35;;
13731;SDS011;6937;56.096;12.664;2022-10-16T00:43:40;20.92;;;18.23;;
13731;SDS011;6937;56.096;12.664;2022-10-16T00:51:23;20.92;;;17.23;;
13731;SDS011;6937;56.096;12.664;2022-10-16T00:53:53;19.48;;;13.80;;
13731;SDS011;6937;56.096;12.664;2022-10-16T00:56:20;19.88;;;13.93;;
13731;SDS011;6937;56.096;12.664;2022-10-16T00:58:45;21.52;;;14.55;;
13731;SDS011;6937;56.096;12.664;2022-10-16T01:01:11;17.67;;;12.52;;
13731;SDS011;6937;56.096;12.664;2022-10-16T01:03:37;21.48;;;17.42;;
13731;SDS011;6937;56.096;12.664;2022-10-16T01:14:25;19.73;;;17.65;;
13731;SDS011;6937;56.096;12.664;2022-10-16T01:17:13;20.90;;;15.57;;
13731;SDS011;6937;56.096;12.664;2022-10-16T01:25:25;21.27;;;15.02;;
13731;SDS011;6937;56.096;12.664;2022-10-16T01:28:04;21.33;;;13.88;;
13731;SDS011;6937;56.096;12.664;2022-10-16T01:30:33;20.50;;;16.75;;
13731;SDS011;6937;56.096;12.664;2022-10-16T01:33:02;22.05;;;17.77;;
13731;SDS011;6937;56.096;12.664;2022-10-16T01:35:41;21.15;;;16.98;;
13731;SDS011;6937;56.096;12.664;2022-10-16T01:40:36;18.25;;;12.90;;
13731;SDS011;6937;56.096;12.664;2022-10-16T01:43:06;19.75;;;16.05;;
13731;SDS011;6937;56.096;12.664;2022-10-16T01:45:47;18.20;;;13.55;;
13731;SDS011;6937;56.096;12.664;2022-10-16T01:48:14;21.17;;;14.65;;
13731;SDS011;6937;56.096;12.664;2022-10-16T01:50:43;18.48;;;15.18;;
13731;SDS011;6937;56.096;12.664;2022-10-16T01:53:10;20.77;;;13.43;;
13731;SDS011;6937;56.096;12.664;2022-10-16T01:55:39;20.63;;;11.63;;
13731;SDS011;6937;56.096;12.664;2022-10-16T01:58:12;17.73;;;14.32;;
13731;SDS011;6937;56.096;12.664;2022-10-16T02:00:39;15.70;;;13.32;;
13731;SDS011;6937;56.096;12.664;2022-10-16T02:03:08;17.33;;;12.98;;
13731;SDS011;6937;56.096;12.664;2022-10-16T02:05:44;19.60;;;14.38;;
13731;SDS011;6937;56.096;12.664;2022-10-16T02:08:11;19.35;;;14.35;;
13731;SDS011;6937;56.096;12.664;2022-10-16T02:10:37;18.55;;;14.15;;
13731;SDS011;6937;56.096;12.664;2022-10-16T02:13:06;20.15;;;16.80;;
13731;SDS011;6937;56.096;12.664;2022-10-16T02:15:32;20.45;;;13.35;;
13731;SDS011;6937;56.096;12.664;2022-10-16T02:17:57;20.25;;;16.20;;
13731;SDS011;6937;56.096;12.664;2022-10-16T02:20:25;20.42;;;15.07;;
13731;SDS011;6937;56.096;12.664;2022-10-16T02:22:54;17.90;;;11.23;;
13731;SDS011;6937;56.096;12.664;2022-10-16T02:25:23;21.45;;;14.75;;
13731;SDS011;6937;56.096;12.664;2022-10-16T02:27:56;21.63;;;14.45;;
13731;SDS011;6937;56.096;12.664;2022-10-16T02:33:14;27.48;;;19.05;;
13731;SDS011;6937;56.096;12.664;2022-10-16T02:35:42;25.30;;;15.55;;
13731;SDS011;6937;56.096;12.664;2022-10-16T02:38:10;25.08;;;18.65;;
13731;SDS011;6937;56.096;12.664;2022-10-16T02:40:36;26.08;;;15.98;;
13731;SDS011;6937;56.096;12.664;2022-10-16T02:43:03;22.30;;;12.35;;
13731;SDS011;6937;56.096;12.664;2022-10-16T02:45:30;27.02;;;18.52;;
13731;SDS011;6937;56.096;12.664;2022-10-16T02:47:55;22.45;;;14.95;;
13731;SDS011;6937;56.096;12.664;2022-10-16T02:50:21;26.52;;;18.73;;
13731;SDS011;6937;56.096;12.664;2022-10-16T02:52:47;23.20;;;17.98;;
13731;SDS011;6937;56.096;12.664;2022-10-16T02:55:13;22.83;;;15.70;;
13731;SDS011;6937;56.096;12.664;2022-10-16T02:57:38;24.85;;;17.52;;
13731;SDS011;6937;56.096;12.664;2022-10-16T03:00:05;21.83;;;14.23;;
13731;SDS011;6937;56.096;12.664;2022-10-16T03:02:31;24.58;;;17.08;;
13731;SDS011;6937;56.096;12.664;2022-10-16T03:04:57;19.70;;;13.05;;
13731;SDS011;6937;56.096;12.664;2022-10-16T03:07:22;20.75;;;15.63;;
13731;SDS011;6937;56.096;12.664;2022-10-16T03:09:48;21.38;;;16.08;;
13731;SDS011;6937;56.096;12.664;2022-10-16T03:12:13;19.17;;;15.25;;
13731;SDS011;6937;56.096;12.664;2022-10-16T03:14:38;22.35;;;12.88;;
13731;SDS011;6937;56.096;12.664;2022-10-16T03:17:05;21.10;;;11.95;;
13731;SDS011;6937;56.096;12.664;2022-10-16T03:19:30;23.08;;;15.65;;
13731;SDS011;6937;56.096;12.664;2022-10-16T03:21:55;18.63;;;11.98;;
13731;SDS011;6937;56.096;12.664;2022-10-16T03:24:21;16.33;;;11.35;;
13731;SDS011;6937;56.096;12.664;2022-10-16T03:26:46;21.38;;;12.20;;
13731;SDS011;6937;56.096;12.664;2022-10-16T03:29:11;22.42;;;11.35;;
13731;SDS011;6937;56.096;12.664;2022-10-16T03:31:37;22.25;;;11.43;;
13731;SDS011;6937;56.096;12.664;2022-10-16T03:34:02;22.05;;;14.38;;
13731;SDS011;6937;56.096;12.664;2022-10-16T03:36:27;21.95;;;11.98;;
13731;SDS011;6937;56.096;12.664;2022-10-16T03:38:53;17.45;;;13.48;;
13731;SDS011;6937;56.096;12.664;2022-10-16T03:41:18;20.40;;;14.20;;
13731;SDS011;6937;56.096;12.664;2022-10-16T03:43:43;18.55;;;12.38;;
13731;SDS011;6937;56.096;12.664;2022-10-16T03:46:09;21.02;;;11.40;;
13731;SDS011;6937;56.096;12.664;2022-10-16T03:48:34;20.88;;;12.55;;
13731;SDS011;6937;56.096;12.664;2022-10-16T03:50:59;19.90;;;10.90;;
13731;SDS011;6937;56.096;12.664;2022-10-16T03:53:25;18.15;;;11.32;;
13731;SDS011;6937;56.096;12.664;2022-10-16T03:55:50;18.38;;;13.98;;
13731;SDS011;6937;56.096;12.664;2022-10-16T03:58:16;19.27;;;14.80;;
13731;SDS011;6937;56.096;12.664;2022-10-16T04:00:41;19.27;;;14.32;;
13731;SDS011;6937;56.096;12.664;2022-10-16T04:03:10;20.23;;;9.73;;
13731;SDS011;6937;56.096;12.664;2022-10-16T04:05:36;17.70;;;10.70;;
13731;SDS011;6937;56.096;12.664;2022-10-16T04:08:01;18.50;;;10.07;;
13731;SDS011;6937;56.096;12.664;2022-10-16T04:10:27;20.05;;;15.05;;
13731;SDS011;6937;56.096;12.664;2022-10-16T04:12:53;23.25;;;13.52;;
13731;SDS011;6937;56.096;12.664;2022-10-16T04:15:20;22.42;;;11.63;;
13731;SDS011;6937;56.096;12.664;2022-10-16T04:17:47;21.60;;;13.85;;
13731;SDS011;6937;56.096;12.664;2022-10-16T04:20:12;20.77;;;14.10;;
13731;SDS011;6937;56.096;12.664;2022-10-16T04:22:37;17.58;;;13.07;;
13731;SDS011;6937;56.096;12.664;2022-10-16T04:25:04;18.75;;;11.38;;
13731;SDS011;6937;56.096;12.664;2022-10-16T04:27:29;18.08;;;13.05;;
13731;SDS011;6937;56.096;12.664;2022-10-16T04:29:56;18.38;;;10.63;;
13731;SDS011;6937;56.096;12.664;2022-10-16T04:32:22;15.48;;;11.45;;
13731;SDS011;6937;56.096;12.664;2022-10-16T04:34:47;16.10;;;11.45;;
13731;SDS011;6937;56.096;12.664;2022-10-16T04:37:13;16.08;;;9.98;;
13731;SDS011;6937;56.096;12.664;2022-10-16T04:39:38;17.73;;;9.23;;
13731;SDS011;6937;56.096;12.664;2022-10-16T04:42:04;15.50;;;9.07;;
13731;SDS011;6937;56.096;12.664;2022-10-16T04:44:29;15.15;;;10.88;;
13731;SDS011;6937;56.096;12.664;2022-10-16T04:46:55;14.32;;;8.98;;
13731;SDS011;6937;56.096;12.664;2022-10-16T04:49:20;17.13;;;9.07;;
13731;SDS011;6937;56.096;12.664;2022-10-16T04:51:45;17.13;;;10.15;;
13731;SDS011;6937;56.096;12.664;2022-10-16T04:54:11;14.13;;;10.85;;
13731;SDS011;6937;56.096;12.664;2022-10-16T04:56:36;15.02;;;10.20;;
13731;SDS011;6937;56.096;12.664;2022-10-16T04:59:08;14.88;;;9.48;;
13731;SDS011;6937;56.096;12.664;2022-10-16T05:01:34;16.85;;;10.13;;
13731;SDS011;6937;56.096;12.664;2022-10-16T05:03:59;16.73;;;9.70;;
13731;SDS011;6937;56.096;12.664;2022-10-16T05:06:25;17.30;;;10.05;;
13731;SDS011;6937;56.096;12.664;2022-10-16T05:08:50;14.75;;;8.88;;
13731;SDS011;6937;56.096;12.664;2022-10-16T05:11:15;17.63;;;9.43;;
13731;SDS011;6937;56.096;12.664;2022-10-16T05:13:41;14.20;;;9.50;;
13731;SDS011;6937;56.096;12.664;2022-10-16T05:16:06;16.92;;;8.82;;
13731;SDS011;6937;56.096;12.664;2022-10-16T05:18:32;15.27;;;9.77;;
13731;SDS011;6937;56.096;12.664;2022-10-16T05:20:57;13.90;;;9.75;;
13731;SDS011;6937;56.096;12.664;2022-10-16T05:23:22;13.40;;;7.85;;
13731;SDS011;6937;56.096;12.664;2022-10-16T05:25:57;17.35;;;8.05;;
13731;SDS011;6937;56.096;12.664;2022-10-16T05:28:25;14.95;;;8.27;;
13731;SDS011;6937;56.096;12.664;2022-10-16T05:30:51;18.55;;;8.43;;
13731;SDS011;6937;56.096;12.664;2022-10-16T05:33:16;16.85;;;9.18;;
13731;SDS011;6937;56.096;12.664;2022-10-16T05:35:42;14.05;;;9.02;;
13731;SDS011;6937;56.096;12.664;2022-10-16T05:38:08;12.05;;;7.50;;
13731;SDS011;6937;56.096;12.664;2022-10-16T05:40:34;13.10;;;6.53;;
13731;SDS011;6937;56.096;12.664;2022-10-16T05:43:00;10.23;;;6.78;;
13731;SDS011;6937;56.096;12.664;2022-10-16T05:45:25;15.70;;;6.93;;
13731;SDS011;6937;56.096;12.664;2022-10-16T05:47:50;12.98;;;6.40;;
13731;SDS011;6937;56.096;12.664;2022-10-16T05:50:16;12.05;;;6.47;;
13731;SDS011;6937;56.096;12.664;2022-10-16T05:52:41;12.82;;;6.13;;
13731;SDS011;6937;56.096;12.664;2022-10-16T05:55:07;14.18;;;6.63;;
13731;SDS011;6937;56.096;12.664;2022-10-16T05:57:32;12.38;;;6.63;;
13731;SDS011;6937;56.096;12.664;2022-10-16T05:59:58;9.68;;;5.65;;
13731;SDS011;6937;56.096;12.664;2022-10-16T06:02:23;9.55;;;5.75;;
13731;SDS011;6937;56.096;12.664;2022-10-16T06:04:49;8.88;;;5.10;;
13731;SDS011;6937;56.096;12.664;2022-10-16T06:07:14;13.20;;;5.05;;
13731;SDS011;6937;56.096;12.664;2022-10-16T06:09:39;12.05;;;4.45;;
13731;SDS011;6937;56.096;12.664;2022-10-16T06:12:05;8.35;;;4.40;;
13731;SDS011;6937;56.096;12.664;2022-10-16T06:14:30;14.65;;;5.45;;
13731;SDS011;6937;56.096;12.664;2022-10-16T06:16:56;10.45;;;5.03;;
13731;SDS011;6937;56.096;12.664;2022-10-16T06:19:21;8.50;;;4.90;;
13731;SDS011;6937;56.096;12.664;2022-10-16T06:21:47;8.02;;;5.60;;
13731;SDS011;6937;56.096;12.664;2022-10-16T06:24:13;11.27;;;6.10;;
13731;SDS011;6937;56.096;12.664;2022-10-16T06:26:38;8.30;;;5.85;;
13731;SDS011;6937;56.096;12.664;2022-10-16T06:29:04;15.45;;;6.60;;
13731;SDS011;6937;56.096;12.664;2022-10-16T06:31:29;12.38;;;6.55;;
13731;SDS011;6937;56.096;12.664;2022-10-16T06:33:58;10.45;;;5.85;;
13731;SDS011;6937;56.096;12.664;2022-10-16T06:36:24;9.75;;;5.93;;
13731;SDS011;6937;56.096;12.664;2022-10-16T06:38:50;11.57;;;6.55;;
13731;SDS011;6937;56.096;12.664;2022-10-16T06:41:16;14.35;;;7.40;;
13731;SDS011;6937;56.096;12.664;2022-10-16T06:43:43;14.93;;;7.18;;
13731;SDS011;6937;56.096;12.664;2022-10-16T06:46:10;16.02;;;6.60;;
13731;SDS011;6937;56.096;12.664;2022-10-16T06:48:37;13.10;;;8.30;;
13731;SDS011;6937;56.096;12.664;2022-10-16T06:51:04;12.70;;;8.88;;
13731;SDS011;6937;56.096;12.664;2022-10-16T06:53:32;15.88;;;9.02;;
13731;SDS011;6937;56.096;12.664;2022-10-16T06:56:09;14.30;;;7.80;;
13731;SDS011;6937;56.096;12.664;2022-10-16T06:58:39;13.85;;;6.60;;
13731;SDS011;6937;56.096;12.664;2022-10-16T07:01:05;12.75;;;7.82;;
13731;SDS011;6937;56.096;12.664;2022-10-16T07:03:32;15.27;;;8.10;;
13731;SDS011;6937;56.096;12.664;2022-10-16T07:06:00;16.15;;;7.85;;
13731;SDS011;6937;56.096;12.664;2022-10-16T07:08:30;11.98;;;6.72;;
13731;SDS011;6937;56.096;12.664;2022-10-16T07:11:03;14.13;;;7.25;;
13731;SDS011;6937;56.096;12.664;2022-10-16T07:13:32;9.55;;;6.35;;
13731;SDS011;6937;56.096;12.664;2022-10-16T07:16:03;15.15;;;7.30;;
13731;SDS011;6937;56.096;12.664;2022-10-16T07:18:30;11.32;;;6.65;;
13731;SDS011;6937;56.096;12.664;2022-10-16T07:21:02;9.18;;;5.78;;
13731;SDS011;6937;56.096;12.664;2022-10-16T07:23:32;12.27;;;5.55;;
13731;SDS011;6937;56.096;12.664;2022-10-16T07:25:57;10.27;;;6.10;;
13731;SDS011;6937;56.096;12.664;2022-10-16T07:28:22;9.93;;;5.53;;
13731;SDS011;6937;56.096;12.664;2022-10-16T07:30:48;11.70;;;5.15;;
13731;SDS011;6937;56.096;12.664;2022-10-16T07:33:13;9.68;;;5.85;;
13731;SDS011;6937;56.096;12.664;2022-10-16T07:35:47;9.73;;;5.82;;
13731;SDS011;6937;56.096;12.664;2022-10-16T07:38:13;8.90;;;5.70;;
13731;SDS011;6937;56.096;12.664;2022-10-16T07:40:39;13.10;;;5.80;;
13731;SDS011;6937;56.096;12.664;2022-10-16T07:43:04;11.40;;;5.88;;
13731;SDS011;6937;56.096;12.664;2022-10-16T07:45:30;12.27;;;5.70;;
13731;SDS011;6937;56.096;12.664;2022-10-16T07:47:55;10.63;;;5.40;;
13731;SDS011;6937;56.096;12.664;2022-10-16T07:50:21;10.95;;;5.57;;
13731;SDS011;6937;56.096;12.664;2022-10-16T07:52:46;12.15;;;5.03;;
13731;SDS011;6937;56.096;12.664;2022-10-16T07:55:12;10.30;;;5.45;;
13731;SDS011;6937;56.096;12.664;2022-10-16T07:57:38;11.30;;;5.22;;
13731;SDS011;6937;56.096;12.664;2022-10-16T08:00:03;8.98;;;5.05;;
13731;SDS011;6937;56.096;12.664;2022-10-16T08:02:29;8.85;;;4.65;;
13731;SDS011;6937;56.096;12.664;2022-10-16T08:04:55;13.43;;;5.03;;
13731;SDS011;6937;56.096;12.664;2022-10-16T08:07:20;9.48;;;5.07;;
13731;SDS011;6937;56.096;12.664;2022-10-16T08:09:48;9.25;;;5.32;;
13731;SDS011;6937;56.096;12.664;2022-10-16T08:12:14;9.20;;;4.28;;
13731;SDS011;6937;56.096;12.664;2022-10-16T08:14:40;7.93;;;4.70;;
13731;SDS011;6937;56.096;12.664;2022-10-16T08:17:05;10.65;;;4.82;;
13731;SDS011;6937;56.096;12.664;2022-10-16T08:19:30;9.65;;;4.97;;
13731;SDS011;6937;56.096;12.664;2022-10-16T08:21:59;7.43;;;4.82;;
13731;SDS011;6937;56.096;12.664;2022-10-16T08:24:24;7.60;;;4.40;;
13731;SDS011;6937;56.096;12.664;2022-10-16T08:26:50;8.48;;;4.57;;
13731;SDS011;6937;56.096;12.664;2022-10-16T08:29:15;10.02;;;4.22;;
13731;SDS011;6937;56.096;12.664;2022-10-16T08:31:40;10.13;;;4.15;;
13731;SDS011;6937;56.096;12.664;2022-10-16T08:34:06;8.88;;;3.88;;
13731;SDS011;6937;56.096;12.664;2022-10-16T08:36:31;8.18;;;3.85;;
13731;SDS011;6937;56.096;12.664;2022-10-16T08:38:57;8.77;;;3.95;;
13731;SDS011;6937;56.096;12.664;2022-10-16T08:47:12;7.82;;;3.72;;
13731;SDS011;6937;56.096;12.664;2022-10-16T08:49:55;6.20;;;3.38;;
13731;SDS011;6937;56.096;12.664;2022-10-16T08:52:24;7.20;;;3.53;;
13731;SDS011;6937;56.096;12.664;2022-10-16T08:54:53;7.10;;;3.45;;
13731;SDS011;6937;56.096;12.664;2022-10-16T08:57:21;7.75;;;3.63;;
13731;SDS011;6937;56.096;12.664;2022-10-16T08:59:47;7.47;;;3.28;;
13731;SDS011;6937;56.096;12.664;2022-10-16T09:05:17;7.40;;;2.80;;
13731;SDS011;6937;56.096;12.664;2022-10-16T09:08:03;5.50;;;2.80;;
13731;SDS011;6937;56.096;12.664;2022-10-16T09:15:53;6.15;;;2.78;;
13731;SDS011;6937;56.096;12.664;2022-10-16T09:18:28;6.15;;;2.42;;
13731;SDS011;6937;56.096;12.664;2022-10-16T09:23:46;6.30;;;2.65;;
13731;SDS011;6937;56.096;12.664;2022-10-16T09:26:13;6.30;;;2.35;;
13731;SDS011;6937;56.096;12.664;2022-10-16T09:28:41;9.50;;;2.80;;
13731;SDS011;6937;56.096;12.664;2022-10-16T09:31:24;7.63;;;2.88;;
13731;SDS011;6937;56.096;12.664;2022-10-16T09:33:52;4.95;;;2.67;;
13731;SDS011;6937;56.096;12.664;2022-10-16T09:36:20;5.57;;;2.25;;
13731;SDS011;6937;56.096;12.664;2022-10-16T09:38:48;4.72;;;2.28;;
13731;SDS011;6937;56.096;12.664;2022-10-16T09:41:18;6.82;;;2.33;;
13731;SDS011;6937;56.096;12.664;2022-10-16T09:46:31;5.07;;;2.08;;
13731;SDS011;6937;56.096;12.664;2022-10-16T09:49:03;5.25;;;2.35;;
13731;SDS011;6937;56.096;12.664;2022-10-16T09:51:34;8.02;;;2.50;;
13731;SDS011;6937;56.096;12.664;2022-10-16T09:56:34;6.70;;;2.30;;
13731;SDS011;6937;56.096;12.664;2022-10-16T09:59:14;5.82;;;2.47;;
13731;SDS011;6937;56.096;12.664;2022-10-16T10:01:43;7.80;;;2.20;;
13731;SDS011;6937;56.096;12.664;2022-10-16T10:04:14;5.55;;;2.33;;
13731;SDS011;6937;56.096;12.664;2022-10-16T10:06:47;5.65;;;2.03;;
13731;SDS011;6937;56.096;12.664;2022-10-16T10:14:22;5.63;;;1.83;;
13731;SDS011;6937;56.096;12.664;2022-10-16T10:16:48;6.35;;;1.80;;
13731;SDS011;6937;56.096;12.664;2022-10-16T10:19:16;3.63;;;1.42;;
13731;SDS011;6937;56.096;12.664;2022-10-16T10:21:46;5.63;;;1.70;;
13731;SDS011;6937;56.096;12.664;2022-10-16T10:24:13;6.45;;;1.85;;
13731;SDS011;6937;56.096;12.664;2022-10-16T10:29:15;4.07;;;1.40;;
13731;SDS011;6937;56.096;12.664;2022-10-16T10:32:09;5.75;;;1.77;;
13731;SDS011;6937;56.096;12.664;2022-10-16T10:34:45;6.40;;;1.90;;
13731;SDS011;6937;56.096;12.664;2022-10-16T10:40:45;3.97;;;1.48;;
13731;SDS011;6937;56.096;12.664;2022-10-16T10:45:46;6.05;;;1.20;;
13731;SDS011;6937;56.096;12.664;2022-10-16T10:51:13;6.00;;;1.50;;
13731;SDS011;6937;56.096;12.664;2022-10-16T10:54:01;5.97;;;1.58;;
13731;SDS011;6937;56.096;12.664;2022-10-16T10:56:57;5.05;;;1.65;;
13731;SDS011;6937;56.096;12.664;2022-10-16T11:01:56;6.13;;;1.50;;
13731;SDS011;6937;56.096;12.664;2022-10-16T11:04:47;5.60;;;1.40;;
13731;SDS011;6937;56.096;12.664;2022-10-16T11:07:19;5.05;;;1.55;;
13731;SDS011;6937;56.096;12.664;2022-10-16T11:09:57;4.97;;;1.70;;
13731;SDS011;6937;56.096;12.664;2022-10-16T11:12:31;5.85;;;1.75;;
13731;SDS011;6937;56.096;12.664;2022-10-16T11:17:42;4.80;;;1.40;;
13731;SDS011;6937;56.096;12.664;2022-10-16T11:20:16;7.97;;;1.73;;
13731;SDS011;6937;56.096;12.664;2022-10-16T11:26:11;6.50;;;1.45;;
13731;SDS011;6937;56.096;12.664;2022-10-16T11:28:51;6.07;;;1.73;;
13731;SDS011;6937;56.096;12.664;2022-10-16T11:34:06;6.18;;;2.05;;
13731;SDS011;6937;56.096;12.664;2022-10-16T11:39:27;8.30;;;1.58;;
13731;SDS011;6937;56.096;12.664;2022-10-16T11:41:56;5.05;;;1.70;;
13731;SDS011;6937;56.096;12.664;2022-10-16T11:47:27;6.18;;;1.50;;
13731;SDS011;6937;56.096;12.664;2022-10-16T11:50:20;5.45;;;1.73;;
13731;SDS011;6937;56.096;12.664;2022-10-16T11:55:52;7.50;;;2.33;;
13731;SDS011;6937;56.096;12.664;2022-10-16T11:58:26;7.80;;;1.75;;
13731;SDS011;6937;56.096;12.664;2022-10-16T12:09:26;7.57;;;2.17;;
13731;SDS011;6937;56.096;12.664;2022-10-16T12:11:54;6.35;;;1.60;;
13731;SDS011;6937;56.096;12.664;2022-10-16T12:14:21;4.78;;;1.60;;
13731;SDS011;6937;56.096;12.664;2022-10-16T12:16:58;4.90;;;1.55;;
13731;SDS011;6937;56.096;12.664;2022-10-16T12:19:29;5.25;;;1.60;;
13731;SDS011;6937;56.096;12.664;2022-10-16T12:21:56;5.70;;;1.42;;
13731;SDS011;6937;56.096;12.664;2022-10-16T12:24:39;6.97;;;1.83;;
13731;SDS011;6937;56.096;12.664;2022-10-16T12:27:23;7.82;;;1.77;;
13731;SDS011;6937;56.096;12.664;2022-10-16T12:29:59;5.88;;;1.55;;
13731;SDS011;6937;56.096;12.664;2022-10-16T12:35:00;4.90;;;1.42;;
13731;SDS011;6937;56.096;12.664;2022-10-16T12:37:31;6.78;;;1.92;;
13731;SDS011;6937;56.096;12.664;2022-10-16T12:39:59;6.97;;;1.60;;
13731;SDS011;6937;56.096;12.664;2022-10-16T12:42:36;8.13;;;2.08;;
13731;SDS011;6937;56.096;12.664;2022-10-16T12:45:12;6.00;;;1.70;;
13731;SDS011;6937;56.096;12.664;2022-10-16T12:47:52;4.60;;;1.42;;
13731;SDS011;6937;56.096;12.664;2022-10-16T12:50:38;7.38;;;1.70;;
13731;SDS011;6937;56.096;12.664;2022-10-16T12:53:18;4.93;;;1.98;;
13731;SDS011;6937;56.096;12.664;2022-10-16T13:01:49;4.65;;;1.52;;
13731;SDS011;6937;56.096;12.664;2022-10-16T13:12:36;11.98;;;2.20;;
13731;SDS011;6937;56.096;12.664;2022-10-16T13:15:26;5.15;;;1.35;;
13731;SDS011;6937;56.096;12.664;2022-10-16T13:18:05;4.68;;;1.20;;
13731;SDS011;6937;56.096;12.664;2022-10-16T13:28:50;7.18;;;1.20;;
13731;SDS011;6937;56.096;12.664;2022-10-16T13:31:19;4.68;;;1.23;;
13731;SDS011;6937;56.096;12.664;2022-10-16T13:33:50;6.45;;;1.60;;
13731;SDS011;6937;56.096;12.664;2022-10-16T13:38:47;5.68;;;1.40;;
13731;SDS011;6937;56.096;12.664;2022-10-16T13:41:16;6.53;;;1.92;;
13731;SDS011;6937;56.096;12.664;2022-10-16T13:43:43;5.10;;;1.70;;
13731;SDS011;6937;56.096;12.664;2022-10-16T13:46:13;7.15;;;2.03;;
13731;SDS011;6937;56.096;12.664;2022-10-16T13:48:38;6.72;;;2.20;;
13731;SDS011;6937;56.096;12.664;2022-10-16T13:51:14;10.68;;;2.03;;
13731;SDS011;6937;56.096;12.664;2022-10-16T13:53:41;7.18;;;2.10;;
13731;SDS011;6937;56.096;12.664;2022-10-16T13:56:12;8.35;;;2.00;;
13731;SDS011;6937;56.096;12.664;2022-10-16T13:58:40;8.05;;;2.28;;
13731;SDS011;6937;56.096;12.664;2022-10-16T14:01:16;9.35;;;2.15;;
13731;SDS011;6937;56.096;12.664;2022-10-16T14:03:45;7.25;;;2.20;;
13731;SDS011;6937;56.096;12.664;2022-10-16T14:06:19;8.13;;;2.17;;
13731;SDS011;6937;56.096;12.664;2022-10-16T14:08:49;9.48;;;2.10;;
13731;SDS011;6937;56.096;12.664;2022-10-16T14:11:22;11.10;;;2.60;;
13731;SDS011;6937;56.096;12.664;2022-10-16T14:13:48;8.55;;;2.33;;
13731;SDS011;6937;56.096;12.664;2022-10-16T14:16:20;9.45;;;2.47;;
13731;SDS011;6937;56.096;12.664;2022-10-16T14:21:35;10.57;;;2.67;;
13731;SDS011;6937;56.096;12.664;2022-10-16T14:24:12;7.95;;;2.42;;
13731;SDS011;6937;56.096;12.664;2022-10-16T14:26:42;8.40;;;2.60;;
13731;SDS011;6937;56.096;12.664;2022-10-16T14:29:13;8.38;;;2.65;;
13731;SDS011;6937;56.096;12.664;2022-10-16T14:31:55;10.77;;;2.80;;
13731;SDS011;6937;56.096;12.664;2022-10-16T14:34:32;10.63;;;2.83;;
13731;SDS011;6937;56.096;12.664;2022-10-16T14:37:01;10.63;;;2.58;;
13731;SDS011;6937;56.096;12.664;2022-10-16T14:39:34;11.25;;;2.92;;
13731;SDS011;6937;56.096;12.664;2022-10-16T14:42:00;8.32;;;2.75;;
13731;SDS011;6937;56.096;12.664;2022-10-16T14:44:31;10.45;;;2.92;;
13731;SDS011;6937;56.096;12.664;2022-10-16T14:46:58;13.15;;;3.28;;
13731;SDS011;6937;56.096;12.664;2022-10-16T14:49:33;13.40;;;3.35;;
13731;SDS011;6937;56.096;12.664;2022-10-16T14:51:58;9.07;;;2.70;;
13731;SDS011;6937;56.096;12.664;2022-10-16T14:54:23;11.48;;;3.20;;
13731;SDS011;6937;56.096;12.664;2022-10-16T14:59:24;13.35;;;3.30;;
13731;SDS011;6937;56.096;12.664;2022-10-16T15:01:53;12.75;;;3.33;;
13731;SDS011;6937;56.096;12.664;2022-10-16T15:04:19;12.85;;;3.15;;
13731;SDS011;6937;56.096;12.664;2022-10-16T15:06:44;12.02;;;3.50;;
13731;SDS011;6937;56.096;12.664;2022-10-16T15:09:10;12.95;;;3.30;;
13731;SDS011;6937;56.096;12.664;2022-10-16T15:11:35;13.35;;;3.08;;
13731;SDS011;6937;56.096;12.664;2022-10-16T15:14:01;12.55;;;3.38;;
13731;SDS011;6937;56.096;12.664;2022-10-16T15:16:28;14.13;;;3.92;;
13731;SDS011;6937;56.096;12.664;2022-10-16T15:18:54;15.55;;;4.00;;
13731;SDS011;6937;56.096;12.664;2022-10-16T15:21:30;11.48;;;2.88;;
13731;SDS011;6937;56.096;12.664;2022-10-16T15:23:56;12.52;;;3.50;;
13731;SDS011;6937;56.096;12.664;2022-10-16T15:26:26;13.70;;;4.22;;
13731;SDS011;6937;56.096;12.664;2022-10-16T15:28:52;17.88;;;4.30;;
13731;SDS011;6937;56.096;12.664;2022-10-16T15:31:18;14.93;;;3.75;;
13731;SDS011;6937;56.096;12.664;2022-10-16T15:33:44;16.35;;;3.67;;
13731;SDS011;6937;56.096;12.664;2022-10-16T15:36:12;11.77;;;3.47;;
13731;SDS011;6937;56.096;12.664;2022-10-16T15:38:38;14.05;;;3.90;;
13731;SDS011;6937;56.096;12.664;2022-10-16T15:41:03;12.98;;;3.60;;
13731;SDS011;6937;56.096;12.664;2022-10-16T15:43:29;15.38;;;3.70;;
13731;SDS011;6937;56.096;12.664;2022-10-16T15:45:58;15.77;;;4.30;;
13731;SDS011;6937;56.096;12.664;2022-10-16T15:48:25;16.13;;;4.50;;
13731;SDS011;6937;56.096;12.664;2022-10-16T15:50:50;18.25;;;4.07;;
13731;SDS011;6937;56.096;12.664;2022-10-16T15:53:15;16.48;;;4.68;;
13731;SDS011;6937;56.096;12.664;2022-10-16T15:55:41;14.77;;;4.22;;
13731;SDS011;6937;56.096;12.664;2022-10-16T15:58:06;16.98;;;4.35;;
13731;SDS011;6937;56.096;12.664;2022-10-16T16:00:31;18.40;;;4.32;;
13731;SDS011;6937;56.096;12.664;2022-10-16T16:02:57;17.17;;;6.38;;
13731;SDS011;6937;56.096;12.664;2022-10-16T16:05:22;20.13;;;7.50;;
13731;SDS011;6937;56.096;12.664;2022-10-16T16:07:48;16.90;;;4.78;;
13731;SDS011;6937;56.096;12.664;2022-10-16T16:10:14;13.18;;;4.18;;
13731;SDS011;6937;56.096;12.664;2022-10-16T16:12:40;15.90;;;4.57;;
13731;SDS011;6937;56.096;12.664;2022-10-16T16:15:06;16.70;;;4.72;;
13731;SDS011;6937;56.096;12.664;2022-10-16T16:17:33;14.00;;;3.75;;
13731;SDS011;6937;56.096;12.664;2022-10-16T16:19:59;17.50;;;4.78;;
13731;SDS011;6937;56.096;12.664;2022-10-16T16:22:25;14.32;;;4.10;;
13731;SDS011;6937;56.096;12.664;2022-10-16T16:24:51;15.13;;;4.00;;
13731;SDS011;6937;56.096;12.664;2022-10-16T16:27:16;15.23;;;3.72;;
13731;SDS011;6937;56.096;12.664;2022-10-16T16:29:42;20.45;;;4.53;;
13731;SDS011;6937;56.096;12.664;2022-10-16T16:32:07;16.27;;;4.00;;
13731;SDS011;6937;56.096;12.664;2022-10-16T16:34:32;17.55;;;4.43;;
13731;SDS011;6937;56.096;12.664;2022-10-16T16:36:58;15.07;;;4.13;;
13731;SDS011;6937;56.096;12.664;2022-10-16T16:39:23;20.08;;;4.50;;
13731;SDS011;6937;56.096;12.664;2022-10-16T16:41:49;14.27;;;3.85;;
13731;SDS011;6937;56.096;12.664;2022-10-16T16:44:15;13.65;;;3.55;;
13731;SDS011;6937;56.096;12.664;2022-10-16T16:46:41;15.20;;;4.78;;
13731;SDS011;6937;56.096;12.664;2022-10-16T16:49:09;15.50;;;3.58;;
13731;SDS011;6937;56.096;12.664;2022-10-16T16:51:36;14.15;;;4.20;;